sensor_id;sensor_type;location;lat;lon;timestamp;pressure;altitude;pressure_sealevel;temperature
24586;BMP280;12743;52.262;6.172;2022-07-29T00:02:11;101520.44;;;16.01
24586;BMP280;12743;52.262;6.172;2022-07-29T00:04:37;101514.69;;;15.99
24586;BMP280;12743;52.262;6.172;2022-07-29T00:07:04;101514.81;;;16.03
24586;BMP280;12743;52.262;6.172;2022-07-29T00:09:29;101462.03;;;15.51
24586;BMP280;12743;52.262;6.172;2022-07-29T00:11:57;101500.69;;;15.83
24586;BMP280;12743;52.262;6.172;2022-07-29T00:14:23;101517.09;;;15.89
24586;BMP280;12743;52.262;6.172;2022-07-29T00:16:48;101481.78;;;15.69
24586;BMP280;12743;52.262;6.172;2022-07-29T00:19:14;101491.88;;;15.79
24586;BMP280;12743;52.262;6.172;2022-07-29T00:21:39;101490.16;;;15.71
24586;BMP280;12743;52.262;6.172;2022-07-29T00:24:04;101469.41;;;15.58
24586;BMP280;12743;52.262;6.172;2022-07-29T00:26:30;101479.91;;;15.70
24586;BMP280;12743;52.262;6.172;2022-07-29T00:29:09;101477.84;;;15.79
24586;BMP280;12743;52.262;6.172;2022-07-29T00:31:38;101496.00;;;15.92
24586;BMP280;12743;52.262;6.172;2022-07-29T00:34:03;101435.91;;;15.50
24586;BMP280;12743;52.262;6.172;2022-07-29T00:36:29;101473.84;;;15.85
24586;BMP280;12743;52.262;6.172;2022-07-29T00:38:54;101480.06;;;15.61
24586;BMP280;12743;52.262;6.172;2022-07-29T00:41:19;101446.47;;;15.34
24586;BMP280;12743;52.262;6.172;2022-07-29T00:43:46;101440.59;;;15.56
24586;BMP280;12743;52.262;6.172;2022-07-29T00:46:11;101443.75;;;15.46
24586;BMP280;12743;52.262;6.172;2022-07-29T00:48:37;101445.81;;;15.53
24586;BMP280;12743;52.262;6.172;2022-07-29T00:51:04;101486.00;;;15.86
24586;BMP280;12743;52.262;6.172;2022-07-29T00:53:31;101477.63;;;15.84
24586;BMP280;12743;52.262;6.172;2022-07-29T00:55:57;101465.97;;;15.57
24586;BMP280;12743;52.262;6.172;2022-07-29T00:58:24;101420.09;;;15.53
24586;BMP280;12743;52.262;6.172;2022-07-29T01:00:49;101449.16;;;15.50
24586;BMP280;12743;52.262;6.172;2022-07-29T01:03:15;101437.84;;;15.37
24586;BMP280;12743;52.262;6.172;2022-07-29T01:05:42;101436.31;;;15.36
24586;BMP280;12743;52.262;6.172;2022-07-29T01:08:08;101472.16;;;15.77
24586;BMP280;12743;52.262;6.172;2022-07-29T01:10:36;101476.22;;;15.59
24586;BMP280;12743;52.262;6.172;2022-07-29T01:13:02;101465.16;;;15.84
24586;BMP280;12743;52.262;6.172;2022-07-29T01:15:28;101440.03;;;15.35
24586;BMP280;12743;52.262;6.172;2022-07-29T01:18:16;101462.56;;;15.57
24586;BMP280;12743;52.262;6.172;2022-07-29T01:26:37;101435.72;;;15.43
24586;BMP280;12743;52.262;6.172;2022-07-29T01:29:28;101445.13;;;15.56
24586;BMP280;12743;52.262;6.172;2022-07-29T01:32:08;101433.41;;;15.41
24586;BMP280;12743;52.262;6.172;2022-07-29T01:34:41;101426.88;;;15.23
24586;BMP280;12743;52.262;6.172;2022-07-29T01:37:24;101451.88;;;15.53
24586;BMP280;12743;52.262;6.172;2022-07-29T01:39:54;101429.13;;;15.21
24586;BMP280;12743;52.262;6.172;2022-07-29T01:42:29;101448.25;;;15.46
24586;BMP280;12743;52.262;6.172;2022-07-29T01:45:14;101432.13;;;15.51
24586;BMP280;12743;52.262;6.172;2022-07-29T01:47:53;101416.69;;;15.37
24586;BMP280;12743;52.262;6.172;2022-07-29T01:50:20;101401.59;;;15.10
24586;BMP280;12743;52.262;6.172;2022-07-29T01:52:58;101437.00;;;15.49
24586;BMP280;12743;52.262;6.172;2022-07-29T01:55:29;101358.56;;;14.97
24586;BMP280;12743;52.262;6.172;2022-07-29T01:57:57;101442.16;;;15.57
24586;BMP280;12743;52.262;6.172;2022-07-29T02:00:25;101397.97;;;15.02
24586;BMP280;12743;52.262;6.172;2022-07-29T02:02:53;101428.31;;;15.48
24586;BMP280;12743;52.262;6.172;2022-07-29T02:05:21;101406.28;;;15.44
24586;BMP280;12743;52.262;6.172;2022-07-29T02:07:48;101373.94;;;15.23
24586;BMP280;12743;52.262;6.172;2022-07-29T02:10:15;101371.66;;;15.06
24586;BMP280;12743;52.262;6.172;2022-07-29T02:12:43;101396.31;;;15.10
24586;BMP280;12743;52.262;6.172;2022-07-29T02:15:10;101406.09;;;15.21
24586;BMP280;12743;52.262;6.172;2022-07-29T02:17:42;101420.94;;;15.42
24586;BMP280;12743;52.262;6.172;2022-07-29T02:20:11;101398.66;;;15.27
24586;BMP280;12743;52.262;6.172;2022-07-29T02:22:38;101401.66;;;15.41
24586;BMP280;12743;52.262;6.172;2022-07-29T02:25:05;101431.00;;;15.36
24586;BMP280;12743;52.262;6.172;2022-07-29T02:27:33;101410.81;;;15.44
24586;BMP280;12743;52.262;6.172;2022-07-29T02:30:01;101412.44;;;15.48
24586;BMP280;12743;52.262;6.172;2022-07-29T02:32:28;101426.53;;;15.68
24586;BMP280;12743;52.262;6.172;2022-07-29T02:34:55;101414.03;;;15.21
24586;BMP280;12743;52.262;6.172;2022-07-29T02:37:23;101383.94;;;15.14
24586;BMP280;12743;52.262;6.172;2022-07-29T02:39:52;101397.09;;;15.26
24586;BMP280;12743;52.262;6.172;2022-07-29T02:42:21;101415.53;;;15.22
24586;BMP280;12743;52.262;6.172;2022-07-29T02:44:48;101405.31;;;15.37
24586;BMP280;12743;52.262;6.172;2022-07-29T02:47:21;101417.59;;;15.29
24586;BMP280;12743;52.262;6.172;2022-07-29T02:50:21;101406.59;;;15.27
24586;BMP280;12743;52.262;6.172;2022-07-29T02:53:06;101410.72;;;15.12
24586;BMP280;12743;52.262;6.172;2022-07-29T02:55:40;101426.00;;;15.47
24586;BMP280;12743;52.262;6.172;2022-07-29T02:58:25;101442.66;;;15.47
24586;BMP280;12743;52.262;6.172;2022-07-29T03:00:55;101400.09;;;15.24
24586;BMP280;12743;52.262;6.172;2022-07-29T03:03:22;101448.31;;;15.77
24586;BMP280;12743;52.262;6.172;2022-07-29T03:05:55;101397.47;;;15.40
24586;BMP280;12743;52.262;6.172;2022-07-29T03:08:22;101455.22;;;15.81
24586;BMP280;12743;52.262;6.172;2022-07-29T03:10:48;101427.66;;;15.67
24586;BMP280;12743;52.262;6.172;2022-07-29T03:13:14;101423.44;;;15.50
24586;BMP280;12743;52.262;6.172;2022-07-29T03:15:42;101438.56;;;15.96
24586;BMP280;12743;52.262;6.172;2022-07-29T03:18:09;101436.31;;;15.98
24586;BMP280;12743;52.262;6.172;2022-07-29T03:20:34;101397.81;;;15.54
24586;BMP280;12743;52.262;6.172;2022-07-29T03:22:59;101431.22;;;15.74
24586;BMP280;12743;52.262;6.172;2022-07-29T03:25:25;101418.72;;;15.75
24586;BMP280;12743;52.262;6.172;2022-07-29T03:27:52;101421.44;;;15.94
24586;BMP280;12743;52.262;6.172;2022-07-29T03:30:17;101430.72;;;15.84
24586;BMP280;12743;52.262;6.172;2022-07-29T03:32:42;101396.00;;;15.27
24586;BMP280;12743;52.262;6.172;2022-07-29T03:35:08;101426.34;;;15.76
24586;BMP280;12743;52.262;6.172;2022-07-29T03:37:34;101434.09;;;15.85
24586;BMP280;12743;52.262;6.172;2022-07-29T03:40:03;101424.03;;;15.59
24586;BMP280;12743;52.262;6.172;2022-07-29T03:42:35;101403.19;;;15.42
24586;BMP280;12743;52.262;6.172;2022-07-29T03:45:05;101407.47;;;15.78
24586;BMP280;12743;52.262;6.172;2022-07-29T03:47:33;101371.75;;;15.56
24586;BMP280;12743;52.262;6.172;2022-07-29T03:50:05;101419.44;;;15.72
24586;BMP280;12743;52.262;6.172;2022-07-29T03:52:31;101384.22;;;15.71
24586;BMP280;12743;52.262;6.172;2022-07-29T03:54:57;101353.16;;;15.37
24586;BMP280;12743;52.262;6.172;2022-07-29T03:57:24;101385.59;;;15.50
24586;BMP280;12743;52.262;6.172;2022-07-29T03:59:52;101425.22;;;15.62
24586;BMP280;12743;52.262;6.172;2022-07-29T04:02:19;101402.59;;;15.80
24586;BMP280;12743;52.262;6.172;2022-07-29T04:04:45;101407.06;;;15.45
24586;BMP280;12743;52.262;6.172;2022-07-29T04:07:12;101431.31;;;15.78
24586;BMP280;12743;52.262;6.172;2022-07-29T04:09:37;101415.56;;;15.85
24586;BMP280;12743;52.262;6.172;2022-07-29T04:12:03;101424.03;;;15.90
24586;BMP280;12743;52.262;6.172;2022-07-29T04:14:30;101400.72;;;15.49
24586;BMP280;12743;52.262;6.172;2022-07-29T04:16:55;101426.31;;;15.29
24586;BMP280;12743;52.262;6.172;2022-07-29T04:19:20;101370.81;;;14.90
24586;BMP280;12743;52.262;6.172;2022-07-29T04:21:46;101403.75;;;15.04
24586;BMP280;12743;52.262;6.172;2022-07-29T04:24:11;101410.03;;;15.43
24586;BMP280;12743;52.262;6.172;2022-07-29T04:26:36;101397.81;;;15.54
24586;BMP280;12743;52.262;6.172;2022-07-29T04:29:02;101400.78;;;15.53
24586;BMP280;12743;52.262;6.172;2022-07-29T04:31:27;101383.88;;;15.10
24586;BMP280;12743;52.262;6.172;2022-07-29T04:33:53;101374.22;;;15.18
24586;BMP280;12743;52.262;6.172;2022-07-29T04:36:18;101390.22;;;15.21
24586;BMP280;12743;52.262;6.172;2022-07-29T04:38:43;101395.94;;;15.39
24586;BMP280;12743;52.262;6.172;2022-07-29T04:41:09;101404.03;;;15.15
24586;BMP280;12743;52.262;6.172;2022-07-29T04:43:35;101407.56;;;14.79
24586;BMP280;12743;52.262;6.172;2022-07-29T04:46:01;101420.38;;;15.05
24586;BMP280;12743;52.262;6.172;2022-07-29T04:48:27;101396.41;;;14.58
24586;BMP280;12743;52.262;6.172;2022-07-29T04:50:52;101408.69;;;14.78
24586;BMP280;12743;52.262;6.172;2022-07-29T04:53:17;101408.41;;;14.83
24586;BMP280;12743;52.262;6.172;2022-07-29T04:55:43;101415.22;;;14.69
24586;BMP280;12743;52.262;6.172;2022-07-29T04:58:10;101339.69;;;14.43
24586;BMP280;12743;52.262;6.172;2022-07-29T05:00:35;101366.63;;;14.61
24586;BMP280;12743;52.262;6.172;2022-07-29T05:03:01;101413.06;;;15.14
24586;BMP280;12743;52.262;6.172;2022-07-29T05:05:26;101378.19;;;14.69
24586;BMP280;12743;52.262;6.172;2022-07-29T05:07:52;101389.63;;;15.00
24586;BMP280;12743;52.262;6.172;2022-07-29T05:10:17;101422.69;;;14.79
24586;BMP280;12743;52.262;6.172;2022-07-29T05:12:43;101394.22;;;14.88
24586;BMP280;12743;52.262;6.172;2022-07-29T05:15:09;101407.38;;;15.27
24586;BMP280;12743;52.262;6.172;2022-07-29T05:17:34;101357.84;;;14.85
24586;BMP280;12743;52.262;6.172;2022-07-29T05:20:00;101376.00;;;14.98
24586;BMP280;12743;52.262;6.172;2022-07-29T05:22:25;101404.13;;;15.06
24586;BMP280;12743;52.262;6.172;2022-07-29T05:24:50;101374.22;;;14.63
24586;BMP280;12743;52.262;6.172;2022-07-29T05:27:16;101348.00;;;14.70
24586;BMP280;12743;52.262;6.172;2022-07-29T05:29:41;101382.00;;;14.43
24586;BMP280;12743;52.262;6.172;2022-07-29T05:32:06;101357.41;;;14.15
24586;BMP280;12743;52.262;6.172;2022-07-29T05:34:32;101393.66;;;14.55
24586;BMP280;12743;52.262;6.172;2022-07-29T05:36:57;101396.28;;;14.55
24586;BMP280;12743;52.262;6.172;2022-07-29T05:39:23;101381.09;;;14.52
24586;BMP280;12743;52.262;6.172;2022-07-29T05:41:48;101393.13;;;14.49
24586;BMP280;12743;52.262;6.172;2022-07-29T05:44:14;101400.00;;;14.66
24586;BMP280;12743;52.262;6.172;2022-07-29T05:46:39;101411.44;;;14.70
24586;BMP280;12743;52.262;6.172;2022-07-29T05:49:05;101397.97;;;14.87
24586;BMP280;12743;52.262;6.172;2022-07-29T05:51:34;101378.44;;;14.64
24586;BMP280;12743;52.262;6.172;2022-07-29T05:54:00;101386.59;;;14.86
24586;BMP280;12743;52.262;6.172;2022-07-29T05:56:25;101398.25;;;14.97
24586;BMP280;12743;52.262;6.172;2022-07-29T05:58:51;101396.13;;;14.75
24586;BMP280;12743;52.262;6.172;2022-07-29T06:01:17;101409.06;;;14.92
24586;BMP280;12743;52.262;6.172;2022-07-29T06:03:42;101382.69;;;14.96
24586;BMP280;12743;52.262;6.172;2022-07-29T06:06:08;101390.22;;;14.54
24586;BMP280;12743;52.262;6.172;2022-07-29T06:08:34;101433.72;;;14.96
24586;BMP280;12743;52.262;6.172;2022-07-29T06:11:00;101473.28;;;14.77
24586;BMP280;12743;52.262;6.172;2022-07-29T06:13:26;101488.47;;;14.68
24586;BMP280;12743;52.262;6.172;2022-07-29T06:15:51;101464.56;;;14.77
24586;BMP280;12743;52.262;6.172;2022-07-29T06:18:17;101440.28;;;15.14
24586;BMP280;12743;52.262;6.172;2022-07-29T06:20:42;101440.03;;;15.19
24586;BMP280;12743;52.262;6.172;2022-07-29T06:23:07;101438.22;;;15.08
24586;BMP280;12743;52.262;6.172;2022-07-29T06:25:33;101465.19;;;15.13
24586;BMP280;12743;52.262;6.172;2022-07-29T06:28:00;101476.72;;;15.33
24586;BMP280;12743;52.262;6.172;2022-07-29T06:30:26;101432.44;;;15.18
24586;BMP280;12743;52.262;6.172;2022-07-29T06:32:51;101400.47;;;14.83
24586;BMP280;12743;52.262;6.172;2022-07-29T06:35:17;101447.59;;;15.33
24586;BMP280;12743;52.262;6.172;2022-07-29T06:37:42;101404.06;;;15.18
24586;BMP280;12743;52.262;6.172;2022-07-29T06:40:08;101421.38;;;15.00
24586;BMP280;12743;52.262;6.172;2022-07-29T06:42:52;101443.72;;;15.15
24586;BMP280;12743;52.262;6.172;2022-07-29T06:45:17;101438.88;;;15.32
24586;BMP280;12743;52.262;6.172;2022-07-29T06:47:43;101444.72;;;15.38
24586;BMP280;12743;52.262;6.172;2022-07-29T06:50:08;101413.84;;;15.02
24586;BMP280;12743;52.262;6.172;2022-07-29T06:52:38;101408.72;;;15.21
24586;BMP280;12743;52.262;6.172;2022-07-29T06:55:04;101445.03;;;15.52
24586;BMP280;12743;52.262;6.172;2022-07-29T06:57:29;101434.41;;;15.21
24586;BMP280;12743;52.262;6.172;2022-07-29T06:59:58;101443.81;;;15.34
24586;BMP280;12743;52.262;6.172;2022-07-29T07:02:23;101446.06;;;15.48
24586;BMP280;12743;52.262;6.172;2022-07-29T07:04:49;101443.84;;;15.65
24586;BMP280;12743;52.262;6.172;2022-07-29T07:07:14;101417.66;;;15.45
24586;BMP280;12743;52.262;6.172;2022-07-29T07:09:39;101437.19;;;15.56
24586;BMP280;12743;52.262;6.172;2022-07-29T07:12:05;101407.19;;;15.52
24586;BMP280;12743;52.262;6.172;2022-07-29T07:14:31;101440.44;;;15.65
24586;BMP280;12743;52.262;6.172;2022-07-29T07:16:56;101439.06;;;15.55
24586;BMP280;12743;52.262;6.172;2022-07-29T07:19:21;101431.38;;;15.66
24586;BMP280;12743;52.262;6.172;2022-07-29T07:21:47;101422.16;;;15.75
24586;BMP280;12743;52.262;6.172;2022-07-29T07:24:12;101424.38;;;15.73
24586;BMP280;12743;52.262;6.172;2022-07-29T07:26:38;101442.56;;;15.75
24586;BMP280;12743;52.262;6.172;2022-07-29T07:29:05;101431.81;;;15.68
24586;BMP280;12743;52.262;6.172;2022-07-29T07:31:31;101441.75;;;15.71
24586;BMP280;12743;52.262;6.172;2022-07-29T07:33:56;101420.28;;;15.76
24586;BMP280;12743;52.262;6.172;2022-07-29T07:36:22;101421.44;;;15.78
24586;BMP280;12743;52.262;6.172;2022-07-29T07:38:47;101400.88;;;15.72
24586;BMP280;12743;52.262;6.172;2022-07-29T07:41:15;101407.88;;;15.80
24586;BMP280;12743;52.262;6.172;2022-07-29T07:43:41;101421.81;;;15.92
24586;BMP280;12743;52.262;6.172;2022-07-29T07:46:06;101421.09;;;15.95
24586;BMP280;12743;52.262;6.172;2022-07-29T07:48:32;101396.41;;;15.91
24586;BMP280;12743;52.262;6.172;2022-07-29T07:51:00;101432.50;;;16.15
24586;BMP280;12743;52.262;6.172;2022-07-29T07:53:25;101425.84;;;15.86
24586;BMP280;12743;52.262;6.172;2022-07-29T07:55:50;101399.66;;;16.00
24586;BMP280;12743;52.262;6.172;2022-07-29T07:58:16;101438.47;;;16.28
24586;BMP280;12743;52.262;6.172;2022-07-29T08:00:41;101433.94;;;16.44
24586;BMP280;12743;52.262;6.172;2022-07-29T08:03:06;101419.81;;;16.40
24586;BMP280;12743;52.262;6.172;2022-07-29T08:05:32;101433.34;;;16.35
24586;BMP280;12743;52.262;6.172;2022-07-29T08:07:57;101443.81;;;16.47
24586;BMP280;12743;52.262;6.172;2022-07-29T08:10:23;101413.06;;;16.07
24586;BMP280;12743;52.262;6.172;2022-07-29T08:13:08;101412.84;;;16.51
24586;BMP280;12743;52.262;6.172;2022-07-29T08:15:34;101428.78;;;16.70
24586;BMP280;12743;52.262;6.172;2022-07-29T08:17:59;101425.22;;;16.81
24586;BMP280;12743;52.262;6.172;2022-07-29T08:20:25;101435.38;;;16.98
24586;BMP280;12743;52.262;6.172;2022-07-29T08:22:52;101431.28;;;16.44
24586;BMP280;12743;52.262;6.172;2022-07-29T08:25:18;101431.06;;;16.71
24586;BMP280;12743;52.262;6.172;2022-07-29T08:27:46;101442.28;;;16.84
24586;BMP280;12743;52.262;6.172;2022-07-29T08:30:11;101434.00;;;16.85
24586;BMP280;12743;52.262;6.172;2022-07-29T08:32:37;101412.69;;;16.82
24586;BMP280;12743;52.262;6.172;2022-07-29T08:35:03;101394.25;;;16.89
24586;BMP280;12743;52.262;6.172;2022-07-29T08:37:28;101433.69;;;17.32
24586;BMP280;12743;52.262;6.172;2022-07-29T08:39:53;101387.28;;;16.81
24586;BMP280;12743;52.262;6.172;2022-07-29T08:42:19;101429.25;;;17.36
24586;BMP280;12743;52.262;6.172;2022-07-29T08:44:44;101430.41;;;17.39
24586;BMP280;12743;52.262;6.172;2022-07-29T08:47:10;101415.78;;;17.26
24586;BMP280;12743;52.262;6.172;2022-07-29T08:49:39;101444.53;;;17.24
24586;BMP280;12743;52.262;6.172;2022-07-29T08:52:04;101407.69;;;17.41
24586;BMP280;12743;52.262;6.172;2022-07-29T08:54:30;101432.22;;;17.57
24586;BMP280;12743;52.262;6.172;2022-07-29T08:56:56;101421.63;;;17.61
24586;BMP280;12743;52.262;6.172;2022-07-29T08:59:24;101455.25;;;17.72
24586;BMP280;12743;52.262;6.172;2022-07-29T09:01:53;101450.94;;;17.64
24586;BMP280;12743;52.262;6.172;2022-07-29T09:04:20;101446.84;;;17.70
24586;BMP280;12743;52.262;6.172;2022-07-29T09:06:51;101429.25;;;17.62
24586;BMP280;12743;52.262;6.172;2022-07-29T09:09:16;101448.47;;;17.52
24586;BMP280;12743;52.262;6.172;2022-07-29T09:11:43;101467.34;;;17.70
24586;BMP280;12743;52.262;6.172;2022-07-29T09:14:11;101424.78;;;17.44
24586;BMP280;12743;52.262;6.172;2022-07-29T09:16:48;101474.72;;;17.80
24586;BMP280;12743;52.262;6.172;2022-07-29T09:19:20;101459.31;;;17.44
24586;BMP280;12743;52.262;6.172;2022-07-29T09:21:46;101448.31;;;17.68
24586;BMP280;12743;52.262;6.172;2022-07-29T09:24:25;101468.06;;;17.93
24586;BMP280;12743;52.262;6.172;2022-07-29T09:26:50;101463.16;;;17.95
24586;BMP280;12743;52.262;6.172;2022-07-29T09:29:22;101471.25;;;18.02
24586;BMP280;12743;52.262;6.172;2022-07-29T09:32:06;101472.69;;;17.73
24586;BMP280;12743;52.262;6.172;2022-07-29T09:34:33;101471.00;;;17.84
24586;BMP280;12743;52.262;6.172;2022-07-29T09:36:58;101483.66;;;17.95
24586;BMP280;12743;52.262;6.172;2022-07-29T09:39:37;101486.22;;;17.87
24586;BMP280;12743;52.262;6.172;2022-07-29T09:42:06;101484.31;;;18.14
24586;BMP280;12743;52.262;6.172;2022-07-29T09:44:45;101481.22;;;18.09
24586;BMP280;12743;52.262;6.172;2022-07-29T09:47:13;101476.03;;;17.93
24586;BMP280;12743;52.262;6.172;2022-07-29T09:52:18;101490.81;;;18.17
24586;BMP280;12743;52.262;6.172;2022-07-29T09:54:44;101481.28;;;18.12
24586;BMP280;12743;52.262;6.172;2022-07-29T09:57:24;101491.22;;;17.92
24586;BMP280;12743;52.262;6.172;2022-07-29T10:00:16;101486.56;;;17.86
24586;BMP280;12743;52.262;6.172;2022-07-29T10:02:45;101486.78;;;18.00
24586;BMP280;12743;52.262;6.172;2022-07-29T10:05:25;101492.56;;;18.32
24586;BMP280;12743;52.262;6.172;2022-07-29T10:07:52;101492.50;;;18.28
24586;BMP280;12743;52.262;6.172;2022-07-29T10:10:23;101473.75;;;18.18
24586;BMP280;12743;52.262;6.172;2022-07-29T10:12:51;101498.06;;;18.20
24586;BMP280;12743;52.262;6.172;2022-07-29T10:15:17;101498.56;;;18.29
24586;BMP280;12743;52.262;6.172;2022-07-29T10:17:43;101499.00;;;18.31
24586;BMP280;12743;52.262;6.172;2022-07-29T10:20:09;101503.13;;;18.54
24586;BMP280;12743;52.262;6.172;2022-07-29T10:22:35;101505.63;;;18.73
24586;BMP280;12743;52.262;6.172;2022-07-29T10:25:01;101500.69;;;18.75
24586;BMP280;12743;52.262;6.172;2022-07-29T10:27:26;101499.50;;;19.06
24586;BMP280;12743;52.262;6.172;2022-07-29T10:29:53;101489.81;;;18.88
24586;BMP280;12743;52.262;6.172;2022-07-29T10:34:55;101489.81;;;19.28
24586;BMP280;12743;52.262;6.172;2022-07-29T10:37:33;101489.16;;;18.98
24586;BMP280;12743;52.262;6.172;2022-07-29T10:40:38;101480.41;;;18.97
24586;BMP280;12743;52.262;6.172;2022-07-29T10:43:22;101476.88;;;18.86
24586;BMP280;12743;52.262;6.172;2022-07-29T10:45:55;101481.50;;;18.93
24586;BMP280;12743;52.262;6.172;2022-07-29T10:48:21;101479.78;;;18.74
24586;BMP280;12743;52.262;6.172;2022-07-29T10:51:03;101471.28;;;18.98
24586;BMP280;12743;52.262;6.172;2022-07-29T10:53:50;101468.31;;;18.70
24586;BMP280;12743;52.262;6.172;2022-07-29T10:56:24;101470.78;;;18.86
24586;BMP280;12743;52.262;6.172;2022-07-29T11:01:45;101485.59;;;19.23
24586;BMP280;12743;52.262;6.172;2022-07-29T11:04:11;101478.00;;;19.25
24586;BMP280;12743;52.262;6.172;2022-07-29T11:09:30;101484.00;;;19.59
24586;BMP280;12743;52.262;6.172;2022-07-29T11:11:56;101494.56;;;19.99
24586;BMP280;12743;52.262;6.172;2022-07-29T11:14:54;101493.81;;;20.02
24586;BMP280;12743;52.262;6.172;2022-07-29T11:17:20;101486.56;;;19.99
24586;BMP280;12743;52.262;6.172;2022-07-29T11:19:46;101481.28;;;20.06
24586;BMP280;12743;52.262;6.172;2022-07-29T11:22:31;101480.44;;;19.95
24586;BMP280;12743;52.262;6.172;2022-07-29T11:25:16;101471.78;;;20.12
24586;BMP280;12743;52.262;6.172;2022-07-29T11:27:42;101476.38;;;20.19
24586;BMP280;12743;52.262;6.172;2022-07-29T11:30:08;101465.59;;;20.01
24586;BMP280;12743;52.262;6.172;2022-07-29T11:32:44;101476.38;;;20.19
24586;BMP280;12743;52.262;6.172;2022-07-29T11:35:16;101471.44;;;20.21
24586;BMP280;12743;52.262;6.172;2022-07-29T11:37:42;101477.78;;;20.92
24586;BMP280;12743;52.262;6.172;2022-07-29T11:40:10;101469.72;;;20.85
24586;BMP280;12743;52.262;6.172;2022-07-29T11:42:38;101465.91;;;20.82
24586;BMP280;12743;52.262;6.172;2022-07-29T11:45:04;101465.88;;;20.68
24586;BMP280;12743;52.262;6.172;2022-07-29T11:47:38;101462.50;;;21.13
24586;BMP280;12743;52.262;6.172;2022-07-29T11:50:26;101465.94;;;21.03
24586;BMP280;12743;52.262;6.172;2022-07-29T11:52:52;101460.59;;;21.00
24586;BMP280;12743;52.262;6.172;2022-07-29T11:55:19;101434.28;;;20.95
24586;BMP280;12743;52.262;6.172;2022-07-29T11:57:55;101472.22;;;22.18
24586;BMP280;12743;52.262;6.172;2022-07-29T12:02:47;101461.50;;;22.87
24586;BMP280;12743;52.262;6.172;2022-07-29T12:05:13;101464.03;;;23.01
24586;BMP280;12743;52.262;6.172;2022-07-29T12:07:39;101461.44;;;22.90
24586;BMP280;12743;52.262;6.172;2022-07-29T12:10:05;101463.66;;;23.06
24586;BMP280;12743;52.262;6.172;2022-07-29T12:12:31;101455.69;;;22.44
24586;BMP280;12743;52.262;6.172;2022-07-29T12:14:56;101438.31;;;21.98
24586;BMP280;12743;52.262;6.172;2022-07-29T12:17:26;101452.09;;;22.65
24586;BMP280;12743;52.262;6.172;2022-07-29T12:19:53;101456.63;;;23.19
24586;BMP280;12743;52.262;6.172;2022-07-29T12:24:51;101456.78;;;23.79
24586;BMP280;12743;52.262;6.172;2022-07-29T12:27:17;101463.50;;;23.91
24586;BMP280;12743;52.262;6.172;2022-07-29T12:29:43;101453.91;;;23.93
24586;BMP280;12743;52.262;6.172;2022-07-29T12:32:08;101459.03;;;23.47
24586;BMP280;12743;52.262;6.172;2022-07-29T12:34:34;101441.66;;;23.59
24586;BMP280;12743;52.262;6.172;2022-07-29T12:37:00;101443.88;;;23.67
24586;BMP280;12743;52.262;6.172;2022-07-29T12:39:26;101441.03;;;24.11
24586;BMP280;12743;52.262;6.172;2022-07-29T12:41:53;101442.28;;;24.80
24586;BMP280;12743;52.262;6.172;2022-07-29T12:44:19;101442.84;;;24.68
24586;BMP280;12743;52.262;6.172;2022-07-29T12:46:44;101452.16;;;24.37
24586;BMP280;12743;52.262;6.172;2022-07-29T12:49:20;101445.66;;;24.61
24586;BMP280;12743;52.262;6.172;2022-07-29T12:51:46;101441.34;;;24.67
24586;BMP280;12743;52.262;6.172;2022-07-29T12:54:14;101437.03;;;24.73
24586;BMP280;12743;52.262;6.172;2022-07-29T12:56:41;101441.94;;;25.01
24586;BMP280;12743;52.262;6.172;2022-07-29T12:59:21;101430.50;;;24.47
24586;BMP280;12743;52.262;6.172;2022-07-29T13:01:49;101434.00;;;24.71
24586;BMP280;12743;52.262;6.172;2022-07-29T13:04:56;101440.69;;;24.59
24586;BMP280;12743;52.262;6.172;2022-07-29T13:07:27;101432.06;;;24.48
24586;BMP280;12743;52.262;6.172;2022-07-29T13:09:58;101433.41;;;24.60
24586;BMP280;12743;52.262;6.172;2022-07-29T13:12:34;101433.09;;;25.59
24586;BMP280;12743;52.262;6.172;2022-07-29T13:14:59;101430.69;;;25.25
24586;BMP280;12743;52.262;6.172;2022-07-29T13:17:26;101432.75;;;24.75
24586;BMP280;12743;52.262;6.172;2022-07-29T13:20:08;101429.00;;;24.92
24586;BMP280;12743;52.262;6.172;2022-07-29T13:22:37;101433.38;;;25.25
24586;BMP280;12743;52.262;6.172;2022-07-29T13:25:04;101434.38;;;25.35
24586;BMP280;12743;52.262;6.172;2022-07-29T13:27:32;101429.69;;;25.94
24586;BMP280;12743;52.262;6.172;2022-07-29T13:29:59;101438.63;;;26.23
24586;BMP280;12743;52.262;6.172;2022-07-29T13:32:27;101434.00;;;25.13
24586;BMP280;12743;52.262;6.172;2022-07-29T13:34:54;101433.38;;;25.65
24586;BMP280;12743;52.262;6.172;2022-07-29T13:37:19;101427.78;;;25.75
24586;BMP280;12743;52.262;6.172;2022-07-29T13:39:45;101429.41;;;26.53
24586;BMP280;12743;52.262;6.172;2022-07-29T13:42:11;101433.34;;;26.20
24586;BMP280;12743;52.262;6.172;2022-07-29T13:44:38;101436.94;;;26.61
24586;BMP280;12743;52.262;6.172;2022-07-29T13:47:04;101438.13;;;26.44
24586;BMP280;12743;52.262;6.172;2022-07-29T13:49:30;101433.53;;;25.38
24586;BMP280;12743;52.262;6.172;2022-07-29T13:51:55;101434.22;;;25.97
24586;BMP280;12743;52.262;6.172;2022-07-29T13:54:20;101428.94;;;27.69
24586;BMP280;12743;52.262;6.172;2022-07-29T13:56:46;101437.91;;;27.91
24586;BMP280;12743;52.262;6.172;2022-07-29T13:59:12;101428.31;;;27.65
24586;BMP280;12743;52.262;6.172;2022-07-29T14:01:37;101437.47;;;27.55
24586;BMP280;12743;52.262;6.172;2022-07-29T14:04:03;101418.38;;;27.87
24586;BMP280;12743;52.262;6.172;2022-07-29T14:06:29;101430.34;;;28.45
24586;BMP280;12743;52.262;6.172;2022-07-29T14:08:54;101421.69;;;28.16
24586;BMP280;12743;52.262;6.172;2022-07-29T14:11:20;101428.22;;;28.27
24586;BMP280;12743;52.262;6.172;2022-07-29T14:13:45;101422.34;;;27.70
24586;BMP280;12743;52.262;6.172;2022-07-29T14:16:11;101430.31;;;28.23
24586;BMP280;12743;52.262;6.172;2022-07-29T14:18:36;101415.06;;;28.29
24586;BMP280;12743;52.262;6.172;2022-07-29T14:21:02;101415.78;;;27.83
24586;BMP280;12743;52.262;6.172;2022-07-29T14:23:27;101414.88;;;27.49
24586;BMP280;12743;52.262;6.172;2022-07-29T14:25:52;101417.78;;;28.85